createdAt,value
2022-08-04T00:02:25.603Z,22.38
2022-08-04T00:05:20.357Z,22.30
2022-08-04T00:08:20.386Z,22.57
2022-08-04T00:11:15.575Z,22.54
2022-08-04T00:14:05.140Z,22.56
2022-08-04T00:16:50.672Z,22.38
2022-08-04T00:19:42.270Z,22.65
2022-08-04T00:22:33.074Z,22.65
2022-08-04T00:25:18.945Z,22.67
2022-08-04T00:28:03.202Z,22.50
2022-08-04T00:30:47.821Z,22.66
2022-08-04T00:33:33.079Z,22.70
2022-08-04T00:36:19.462Z,22.86
2022-08-04T00:39:04.180Z,22.68
2022-08-04T00:42:00.346Z,22.61
2022-08-04T00:45:01.577Z,22.23
2022-08-04T00:48:03.448Z,22.41
2022-08-04T00:50:58.575Z,22.75
2022-08-04T00:53:55.883Z,22.41
2022-08-04T00:57:30.185Z,22.54
2022-08-04T01:00:18.695Z,22.03
2022-08-04T01:03:14.320Z,22.01
2022-08-04T01:06:07.752Z,21.86
2022-08-04T01:09:02.325Z,21.95
2022-08-04T01:12:05.274Z,22.06
2022-08-04T01:15:05.178Z,21.67
2022-08-04T01:18:05.873Z,21.67
2022-08-04T01:21:06.480Z,21.72
2022-08-04T01:24:17.166Z,21.71
2022-08-04T01:27:07.504Z,21.30
2022-08-04T01:29:57.969Z,21.30
2022-08-04T01:32:49.280Z,21.47
2022-08-04T01:35:46.590Z,21.27
2022-08-04T01:38:36.258Z,21.23
2022-08-04T01:41:23.742Z,21.06
2022-08-04T01:44:20.411Z,20.87
2022-08-04T01:47:06.327Z,20.90
2022-08-04T01:49:52.947Z,20.82
2022-08-04T01:52:38.303Z,20.81
2022-08-04T01:55:22.662Z,20.67
2022-08-04T01:58:07.131Z,20.79
2022-08-04T02:01:04.851Z,20.60
2022-08-04T02:04:18.813Z,20.65
2022-08-04T02:07:10.426Z,20.61
2022-08-04T02:10:06.204Z,20.23
2022-08-04T02:12:57.814Z,20.43
2022-08-04T02:15:52.181Z,20.66
2022-08-04T02:18:48.031Z,20.38
2022-08-04T02:21:42.090Z,20.42
2022-08-04T02:24:29.611Z,20.53
2022-08-04T02:27:15.987Z,20.49
2022-08-04T02:30:06.344Z,20.56
2022-08-04T02:32:53.515Z,20.63
2022-08-04T02:35:41.988Z,20.67
2022-08-04T02:38:42.141Z,20.62
2022-08-04T02:41:27.610Z,20.75
2022-08-04T02:44:12.505Z,20.47
2022-08-04T02:46:56.827Z,20.51
2022-08-04T02:49:43.707Z,20.56
2022-08-04T02:52:28.176Z,20.37
2022-08-04T02:55:15.346Z,20.29
2022-08-04T02:58:00.179Z,20.29
2022-08-04T03:00:46.361Z,20.24
2022-08-04T03:03:39.493Z,20.08
2022-08-04T03:06:51.987Z,20.27
2022-08-04T03:10:23.071Z,20.53
2022-08-04T03:13:58.601Z,20.38
2022-08-04T03:17:09.603Z,20.51
2022-08-04T03:20:31.332Z,20.54
2022-08-04T03:23:48.273Z,20.66
2022-08-04T03:27:07.367Z,20.60
2022-08-04T03:30:14.695Z,20.71
2022-08-04T03:33:40.064Z,20.72
2022-08-04T03:36:49.538Z,20.72
2022-08-04T03:39:49.088Z,20.76
2022-08-04T03:43:05.256Z,20.99
2022-08-04T03:46:22.713Z,20.81
2022-08-04T03:49:42.538Z,21.04
2022-08-04T03:53:09.967Z,21.34
2022-08-04T03:56:27.876Z,21.66
2022-08-04T03:59:27.900Z,21.90
2022-08-04T04:02:50.185Z,21.82
2022-08-04T04:06:00.482Z,22.07
2022-08-04T04:09:16.044Z,22.17
2022-08-04T04:12:28.558Z,22.25
2022-08-04T04:15:25.997Z,22.17
2022-08-04T04:18:24.644Z,22.51
2022-08-04T04:21:29.463Z,22.63
2022-08-04T04:24:38.841Z,22.68
2022-08-04T04:27:37.892Z,22.62
2022-08-04T04:30:27.718Z,22.94
2022-08-04T04:33:33.528Z,23.05
2022-08-04T04:36:29.538Z,22.93
2022-08-04T04:39:23.981Z,23.00
2022-08-04T04:42:28.556Z,23.19
2022-08-04T04:45:23.330Z,23.09
2022-08-04T04:48:14.121Z,23.19
2022-08-04T04:51:10.046Z,23.34
2022-08-04T04:54:04.080Z,23.40
2022-08-04T04:56:52.662Z,23.36
2022-08-04T04:59:40.429Z,23.64
2022-08-04T05:02:46.781Z,23.75
2022-08-04T05:05:44.696Z,23.63
2022-08-04T05:08:53.882Z,23.97
2022-08-04T05:13:05.074Z,23.76
2022-08-04T05:15:25.284Z,23.51
2022-08-04T05:18:15.488Z,23.38
2022-08-04T05:21:11.992Z,23.52
2022-08-04T05:24:05.217Z,23.56
2022-08-04T05:26:57.132Z,23.89
2022-08-04T05:29:48.490Z,23.89
2022-08-04T05:32:38.053Z,24.13
2022-08-04T05:35:38.989Z,24.24
2022-08-04T05:38:38.937Z,24.10
2022-08-04T05:41:23.539Z,24.10
2022-08-04T05:44:18.441Z,24.33
2022-08-04T05:47:04.918Z,24.56
2022-08-04T05:49:55.595Z,24.66
2022-08-04T05:52:49.260Z,24.81
2022-08-04T05:55:58.195Z,24.80
2022-08-04T05:58:38.635Z,25.08
2022-08-04T06:01:24.783Z,24.91
2022-08-04T06:04:11.148Z,25.12
2022-08-04T06:06:56.426Z,25.23
2022-08-04T06:09:40.340Z,25.52
2022-08-04T06:12:29.021Z,25.51
2022-08-04T06:15:16.104Z,25.34
2022-08-04T06:19:56.217Z,25.74
2022-08-04T06:21:15.967Z,26.13
2022-08-04T06:24:04.470Z,26.29
2022-08-04T06:26:50.870Z,25.94
2022-08-04T06:29:38.276Z,25.88
2022-08-04T06:32:34.378Z,26.15
2022-08-04T06:35:21.755Z,26.34
2022-08-04T06:38:08.068Z,26.06
2022-08-04T06:40:52.022Z,26.04
2022-08-04T06:43:42.977Z,26.49
2022-08-04T06:46:28.800Z,26.43
2022-08-04T06:49:15.145Z,26.59
2022-08-04T06:52:00.073Z,26.55
2022-08-04T06:54:45.801Z,26.28
2022-08-04T06:57:32.139Z,26.53
2022-08-04T07:00:18.847Z,26.21
2022-08-04T07:03:04.697Z,26.31
2022-08-04T07:05:49.637Z,26.48
2022-08-04T07:08:33.938Z,26.43
2022-08-04T07:11:20.900Z,26.65
2022-08-04T07:14:06.876Z,26.95
2022-08-04T07:16:52.176Z,26.66
2022-08-04T07:19:37.709Z,26.84
2022-08-04T07:22:25.633Z,27.09
2022-08-04T07:25:13.246Z,27.14
2022-08-04T07:27:58.708Z,27.01
2022-08-04T07:30:45.335Z,27.30
2022-08-04T07:33:30.303Z,27.52
2022-08-04T07:36:15.225Z,27.76
2022-08-04T07:38:59.686Z,27.54
2022-08-04T07:41:48.895Z,27.62
2022-08-04T07:44:35.782Z,28.00
2022-08-04T07:47:23.586Z,28.16
2022-08-04T07:50:12.604Z,28.11
2022-08-04T07:53:22.423Z,27.66
2022-08-04T07:56:04.093Z,27.52
2022-08-04T07:58:48.103Z,28.14
2022-08-04T08:01:36.447Z,28.20
2022-08-04T08:04:20.705Z,28.35
2022-08-04T08:07:04.698Z,28.49
2022-08-04T08:09:48.751Z,28.12
2022-08-04T08:12:51.526Z,28.50
2022-08-04T08:15:36.683Z,28.60
2022-08-04T08:18:22.257Z,28.64
2022-08-04T08:21:07.681Z,28.89
2022-08-04T08:23:51.773Z,29.09
2022-08-04T08:26:36.340Z,28.83
2022-08-04T08:29:21.327Z,29.23
2022-08-04T08:32:08.878Z,28.84
2022-08-04T08:34:54.820Z,28.71
2022-08-04T08:37:42.452Z,28.70
2022-08-04T08:40:41.007Z,28.93
2022-08-04T08:44:04.803Z,29.13
2022-08-04T08:47:11.041Z,29.31
2022-08-04T08:50:19.833Z,29.84
2022-08-04T08:53:19.556Z,29.48
2022-08-04T08:56:18.481Z,29.53
2022-08-04T08:59:17.967Z,29.62
2022-08-04T09:02:27.965Z,30.23
2022-08-04T09:05:43.937Z,30.19
2022-08-04T09:08:51.822Z,29.82
2022-08-04T09:11:43.339Z,29.59
2022-08-04T09:14:36.603Z,29.04
2022-08-04T09:17:28.486Z,29.10
2022-08-04T09:20:20.889Z,29.45
2022-08-04T09:23:21.563Z,30.36
2022-08-04T09:26:12.599Z,30.81
2022-08-04T09:29:06.468Z,30.33
2022-08-04T09:32:07.054Z,30.05
2022-08-04T09:35:03.627Z,29.94
2022-08-04T09:38:06.514Z,29.48
2022-08-04T09:41:00.258Z,30.01
2022-08-04T09:44:40.798Z,29.91
2022-08-04T09:47:07.342Z,29.97
2022-08-04T09:49:59.198Z,30.12
2022-08-04T09:52:50.990Z,30.20
2022-08-04T09:55:53.890Z,30.43
2022-08-04T09:58:51.231Z,31.70
2022-08-04T10:01:38.057Z,31.15
2022-08-04T10:04:25.683Z,30.55
2022-08-04T10:07:25.510Z,31.03
2022-08-04T10:10:21.994Z,31.19
2022-08-04T10:13:20.947Z,30.54
2022-08-04T10:16:36.815Z,30.20
2022-08-04T10:19:27.698Z,31.09
2022-08-04T10:22:29.336Z,31.39
2022-08-04T10:26:05.708Z,31.13
2022-08-04T10:28:47.909Z,30.43
2022-08-04T10:31:36.644Z,30.52
2022-08-04T10:34:23.505Z,30.72
2022-08-04T10:37:16.945Z,30.46
2022-08-04T10:40:23.658Z,31.76
2022-08-04T10:43:20.501Z,31.28
2022-08-04T10:46:09.878Z,30.56
2022-08-04T10:48:58.986Z,30.54
2022-08-04T10:51:58.946Z,30.57
2022-08-04T10:54:52.870Z,31.05
2022-08-04T10:57:40.762Z,31.16
2022-08-04T11:00:27.092Z,31.46
2022-08-04T11:03:21.842Z,32.32
2022-08-04T11:06:09.928Z,31.12
2022-08-04T11:08:56.771Z,31.31
2022-08-04T11:12:01.075Z,31.91
2022-08-04T11:14:53.205Z,32.03
2022-08-04T11:17:40.107Z,30.76
2022-08-04T11:20:35.598Z,30.76
2022-08-04T11:23:28.056Z,30.72
2022-08-04T11:26:17.160Z,30.13
2022-08-04T11:29:10.496Z,30.39
2022-08-04T11:31:59.339Z,30.91
2022-08-04T11:34:52.896Z,31.46
2022-08-04T11:37:46.774Z,32.15
2022-08-04T11:40:38.913Z,32.33
2022-08-04T11:43:56.657Z,33.05
2022-08-04T11:46:40.742Z,32.29
2022-08-04T11:49:30.692Z,32.38
2022-08-04T11:52:18.718Z,32.20
2022-08-04T11:55:07.009Z,30.98
2022-08-04T11:57:54.333Z,31.29
2022-08-04T12:00:45.558Z,30.53
2022-08-04T12:03:38.753Z,30.87
2022-08-04T12:06:28.173Z,30.26
2022-08-04T12:09:19.756Z,30.71
2022-08-04T12:12:14.848Z,29.76
2022-08-04T12:15:12.809Z,29.55
2022-08-04T12:18:09.058Z,30.40
2022-08-04T12:20:59.845Z,31.21
2022-08-04T12:23:46.425Z,32.19
2022-08-04T12:26:36.096Z,32.81
2022-08-04T12:29:24.002Z,31.97
2022-08-04T12:32:18.970Z,32.55
2022-08-04T12:35:10.637Z,32.01
2022-08-04T12:38:02.957Z,31.19
2022-08-04T12:40:50.239Z,31.12
2022-08-04T12:43:39.616Z,31.56
2022-08-04T12:46:25.642Z,31.62
2022-08-04T12:49:13.137Z,31.87
2022-08-04T12:52:07.507Z,32.00
2022-08-04T12:54:55.810Z,31.35
2022-08-04T12:57:42.862Z,30.02
2022-08-04T13:00:40.566Z,29.93
2022-08-04T13:03:30.785Z,31.11
2022-08-04T13:06:23.387Z,31.78
2022-08-04T13:09:09.806Z,31.47
2022-08-04T13:12:04.562Z,31.69
2022-08-04T13:14:52.250Z,32.44
2022-08-04T13:17:48.982Z,32.13
2022-08-04T13:20:35.072Z,32.39
2022-08-04T13:23:23.136Z,32.40
2022-08-04T13:26:42.295Z,32.78
2022-08-04T13:29:16.502Z,31.45
2022-08-04T13:32:02.109Z,31.40
2022-08-04T13:34:48.826Z,31.00
2022-08-04T13:37:37.161Z,31.06
2022-08-04T13:40:24.706Z,32.11
2022-08-04T13:44:16.348Z,31.71
2022-08-04T13:46:32.845Z,32.33
2022-08-04T13:52:27.380Z,32.34
2022-08-04T13:55:23.488Z,31.71
2022-08-04T13:58:11.779Z,31.63
2022-08-04T14:01:01.452Z,31.68
2022-08-04T14:03:58.425Z,31.50
2022-08-04T14:06:50.271Z,31.25
2022-08-04T14:09:36.017Z,31.29
2022-08-04T14:12:38.120Z,31.84
2022-08-04T14:16:02.159Z,32.50
2022-08-04T14:18:38.027Z,32.72
2022-08-04T14:21:21.915Z,31.54
2022-08-04T14:24:06.688Z,32.06
2022-08-04T14:26:50.662Z,32.02
2022-08-04T14:29:41.996Z,31.58
2022-08-04T14:32:26.383Z,32.04
2022-08-04T14:35:12.710Z,31.36
2022-08-04T14:37:59.302Z,30.56
2022-08-04T14:40:47.583Z,31.12
2022-08-04T14:43:31.417Z,31.21
2022-08-04T14:46:20.394Z,31.19
2022-08-04T14:49:10.325Z,30.30
2022-08-04T14:51:57.096Z,30.88
2022-08-04T14:54:41.595Z,31.81
2022-08-04T14:57:25.595Z,31.82
2022-08-04T15:00:13.527Z,30.82
2022-08-04T15:03:04.079Z,30.20
2022-08-04T15:06:01.818Z,29.65
2022-08-04T15:08:48.178Z,30.83
2022-08-04T15:11:32.195Z,31.65
2022-08-04T15:14:36.212Z,31.68
2022-08-04T15:17:29.309Z,31.81
2022-08-04T15:20:17.530Z,31.70
2022-08-04T15:23:06.133Z,31.52
2022-08-04T15:25:55.811Z,31.94
2022-08-04T15:28:43.498Z,30.73
2022-08-04T15:32:05.965Z,30.85
2022-08-04T15:34:47.550Z,31.84
2022-08-04T15:37:41.391Z,32.17
2022-08-04T15:40:33.454Z,32.02
2022-08-04T15:43:44.859Z,32.59
2022-08-04T15:47:05.510Z,32.59
2022-08-04T15:50:04.540Z,32.96
2022-08-04T15:53:10.744Z,32.01
2022-08-04T15:55:57.461Z,32.22
2022-08-04T15:58:50.837Z,31.56
2022-08-04T16:01:34.785Z,30.38
2022-08-04T16:04:23.794Z,30.20
2022-08-04T16:07:07.759Z,30.14
2022-08-04T16:09:53.042Z,30.48
2022-08-04T16:12:56.491Z,29.67
2022-08-04T16:15:42.231Z,30.20
2022-08-04T16:18:43.989Z,30.27
2022-08-04T16:21:27.975Z,30.00
2022-08-04T16:24:20.167Z,30.03
2022-08-04T16:27:06.511Z,29.84
2022-08-04T16:30:05.545Z,30.07
2022-08-04T16:32:54.887Z,30.36
2022-08-04T16:35:42.245Z,30.76
2022-08-04T16:38:26.976Z,30.65
2022-08-04T16:41:10.870Z,30.19
2022-08-04T16:44:52.086Z,29.92
2022-08-04T16:48:07.666Z,29.79
2022-08-04T16:51:05.115Z,29.86
2022-08-04T16:54:04.184Z,29.72
2022-08-04T16:56:49.482Z,29.97
2022-08-04T16:59:35.057Z,29.28
2022-08-04T17:02:26.111Z,29.04
2022-08-04T17:05:39.416Z,29.00
2022-08-04T17:08:31.678Z,29.26
2022-08-04T17:11:17.068Z,29.19
2022-08-04T17:14:05.086Z,28.90
2022-08-04T17:16:51.539Z,29.01
2022-08-04T17:19:35.859Z,28.80
2022-08-04T17:22:19.619Z,28.48
2022-08-04T17:25:04.586Z,28.37
2022-08-04T17:28:09.208Z,28.60
2022-08-04T17:30:52.540Z,28.53
2022-08-04T17:33:54.213Z,28.20
2022-08-04T17:36:40.445Z,27.77
2022-08-04T17:39:35.047Z,27.73
2022-08-04T17:42:30.368Z,27.76
2022-08-04T17:48:24.105Z,27.49
2022-08-04T17:54:36.322Z,27.40
2022-08-04T17:57:22.761Z,27.68
2022-08-04T18:00:07.855Z,27.49
2022-08-04T18:03:03.385Z,27.53
2022-08-04T18:06:02.238Z,27.56
2022-08-04T18:08:57.963Z,27.38
2022-08-04T18:11:43.116Z,27.36
2022-08-04T18:14:40.993Z,26.91
2022-08-04T18:18:20.819Z,27.14
2022-08-04T18:20:38.768Z,26.91
2022-08-04T18:23:31.906Z,26.87
2022-08-04T18:26:18.492Z,26.62
2022-08-04T18:29:08.653Z,26.43
2022-08-04T18:32:12.837Z,26.45
2022-08-04T18:34:58.646Z,26.42
2022-08-04T18:38:05.367Z,26.46
2022-08-04T18:40:53.085Z,25.60
2022-08-04T18:43:40.768Z,25.61
2022-08-04T18:46:27.156Z,25.59
2022-08-04T18:49:11.486Z,25.70
2022-08-04T18:52:16.203Z,25.58
2022-08-04T18:55:01.888Z,25.82
2022-08-04T18:58:00.720Z,26.09
2022-08-04T19:00:47.069Z,25.81
2022-08-04T19:03:33.074Z,25.73
2022-08-04T19:06:17.602Z,25.63
2022-08-04T19:09:20.810Z,25.79
2022-08-04T19:12:05.902Z,25.79
2022-08-04T19:14:55.100Z,25.42
2022-08-04T19:17:53.978Z,25.20
2022-08-04T19:20:41.569Z,25.35
2022-08-04T19:24:30.000Z,25.26
2022-08-04T19:26:31.759Z,25.27
2022-08-04T19:29:16.560Z,25.49
2022-08-04T19:32:02.673Z,25.54
2022-08-04T19:34:49.939Z,25.34
2022-08-04T19:37:57.922Z,25.49
2022-08-04T19:40:38.968Z,25.42
2022-08-04T19:43:23.308Z,25.08
2022-08-04T19:46:07.543Z,25.00
2022-08-04T19:49:00.189Z,25.14
2022-08-04T19:51:46.491Z,24.25
2022-08-04T19:54:30.547Z,24.53
2022-08-04T19:57:14.516Z,24.72
2022-08-04T19:59:59.454Z,24.31
2022-08-04T20:02:44.762Z,24.34
2022-08-04T20:05:52.749Z,24.62
2022-08-04T20:08:35.121Z,24.60
2022-08-04T20:11:20.692Z,24.71
2022-08-04T20:14:05.132Z,24.63
2022-08-04T20:16:48.904Z,24.56
2022-08-04T20:19:32.664Z,24.59
2022-08-04T20:22:50.573Z,24.43
2022-08-04T20:28:36.335Z,24.18
2022-08-04T20:31:20.848Z,24.26
2022-08-04T20:34:05.457Z,24.13
2022-08-04T20:36:49.817Z,24.39
2022-08-04T20:39:34.040Z,24.45
2022-08-04T20:42:19.391Z,24.56
2022-08-04T20:45:16.384Z,24.53
2022-08-04T20:48:00.784Z,24.56
2022-08-04T20:50:47.138Z,24.41
2022-08-04T20:53:32.618Z,24.51
2022-08-04T20:56:31.722Z,24.29
2022-08-04T20:59:17.191Z,24.36
2022-08-04T21:02:01.058Z,24.38
2022-08-04T21:04:48.754Z,24.37
2022-08-04T21:07:36.383Z,24.18
2022-08-04T21:10:26.346Z,24.18
2022-08-04T21:13:10.339Z,24.21
2022-08-04T21:15:59.178Z,24.22
2022-08-04T21:18:43.405Z,24.26
2022-08-04T21:21:35.414Z,24.25
2022-08-04T21:24:20.105Z,24.16
2022-08-04T21:27:10.174Z,24.12
2022-08-04T21:29:56.306Z,24.10
2022-08-04T21:32:41.913Z,24.15
2022-08-04T21:35:37.539Z,24.21
2022-08-04T21:38:27.973Z,24.09
2022-08-04T21:41:12.349Z,24.03
2022-08-04T21:44:04.544Z,23.98
2022-08-04T21:46:48.496Z,23.89
2022-08-04T21:49:33.656Z,23.55
2022-08-04T21:52:19.866Z,23.79
2022-08-04T21:55:03.900Z,23.68
2022-08-04T21:57:49.284Z,23.48
2022-08-04T22:00:33.776Z,23.49
2022-08-04T22:03:39.513Z,23.63
2022-08-04T22:06:28.571Z,23.47
2022-08-04T22:09:14.879Z,23.56
2022-08-04T22:11:58.993Z,23.66
2022-08-04T22:14:50.533Z,23.53
2022-08-04T22:17:47.608Z,23.41
2022-08-04T22:20:31.589Z,23.36
2022-08-04T22:23:19.293Z,23.48
2022-08-04T22:26:13.326Z,23.16
2022-08-04T22:28:59.259Z,23.26
2022-08-04T22:31:56.103Z,23.18
2022-08-04T22:34:45.601Z,23.09
2022-08-04T22:37:44.964Z,23.08
2022-08-04T22:40:42.347Z,22.97
2022-08-04T22:43:34.595Z,23.30
2022-08-04T22:46:24.386Z,23.15
2022-08-04T22:49:08.253Z,22.63
2022-08-04T22:51:53.413Z,23.28
2022-08-04T22:54:37.229Z,23.10
2022-08-04T22:57:42.862Z,23.16
2022-08-04T23:00:28.945Z,23.06
2022-08-04T23:03:37.097Z,23.15
2022-08-04T23:06:17.721Z,23.15
2022-08-04T23:09:08.388Z,23.26
2022-08-04T23:12:23.845Z,23.17
2022-08-04T23:15:06.221Z,22.90
2022-08-04T23:17:50.755Z,23.40
2022-08-04T23:20:39.565Z,23.36
2022-08-04T23:23:23.864Z,23.61
2022-08-04T23:26:12.684Z,23.59
2022-08-04T23:28:57.386Z,23.40
2022-08-04T23:31:59.918Z,23.33
2022-08-04T23:34:44.272Z,23.55
2022-08-04T23:37:35.408Z,23.57
2022-08-04T23:40:32.437Z,23.58
2022-08-04T23:43:18.202Z,23.65
2022-08-04T23:46:06.596Z,23.54
2022-08-04T23:48:53.648Z,23.40
2022-08-04T23:51:37.460Z,23.23
2022-08-04T23:54:25.923Z,23.33
2022-08-04T23:57:17.239Z,23.15
